sensor_id;sensor_type;location;lat;lon;timestamp;P1;durP1;ratioP1;P2;durP2;ratioP2
70780;SDS011;72716;48.814;2.126;2024-01-30T00:02:13;1.90;;;1.73;;
70780;SDS011;72716;48.814;2.126;2024-01-30T00:04:39;2.60;;;1.83;;
70780;SDS011;72716;48.814;2.126;2024-01-30T00:07:04;1.95;;;1.70;;
70780;SDS011;72716;48.814;2.126;2024-01-30T00:09:29;2.05;;;1.70;;
70780;SDS011;72716;48.814;2.126;2024-01-30T00:11:55;1.80;;;1.70;;
70780;SDS011;72716;48.814;2.126;2024-01-30T00:14:21;2.40;;;1.95;;
70780;SDS011;72716;48.814;2.126;2024-01-30T00:16:46;2.70;;;2.17;;
70780;SDS011;72716;48.814;2.126;2024-01-30T00:19:12;2.33;;;1.63;;
70780;SDS011;72716;48.814;2.126;2024-01-30T00:21:37;2.15;;;1.80;;
70780;SDS011;72716;48.814;2.126;2024-01-30T00:24:02;1.63;;;1.45;;
70780;SDS011;72716;48.814;2.126;2024-01-30T00:26:28;2.08;;;1.98;;
70780;SDS011;72716;48.814;2.126;2024-01-30T00:28:53;2.25;;;1.95;;
70780;SDS011;72716;48.814;2.126;2024-01-30T00:31:19;1.83;;;1.65;;
70780;SDS011;72716;48.814;2.126;2024-01-30T00:33:44;2.25;;;1.95;;
70780;SDS011;72716;48.814;2.126;2024-01-30T00:36:09;2.25;;;2.05;;
70780;SDS011;72716;48.814;2.126;2024-01-30T00:38:35;1.70;;;1.60;;
70780;SDS011;72716;48.814;2.126;2024-01-30T00:41:01;2.03;;;1.38;;
70780;SDS011;72716;48.814;2.126;2024-01-30T00:43:27;1.80;;;1.30;;
70780;SDS011;72716;48.814;2.126;2024-01-30T00:45:53;2.35;;;1.55;;
70780;SDS011;72716;48.814;2.126;2024-01-30T00:48:19;2.58;;;1.83;;
70780;SDS011;72716;48.814;2.126;2024-01-30T00:50:44;1.73;;;1.58;;
70780;SDS011;72716;48.814;2.126;2024-01-30T00:53:10;2.03;;;1.48;;
70780;SDS011;72716;48.814;2.126;2024-01-30T00:55:35;2.30;;;1.60;;
70780;SDS011;72716;48.814;2.126;2024-01-30T00:58:00;1.70;;;1.60;;
70780;SDS011;72716;48.814;2.126;2024-01-30T01:00:26;1.90;;;1.45;;
70780;SDS011;72716;48.814;2.126;2024-01-30T01:02:54;2.20;;;1.27;;
70780;SDS011;72716;48.814;2.126;2024-01-30T01:05:20;2.83;;;1.77;;
70780;SDS011;72716;48.814;2.126;2024-01-30T01:07:45;2.20;;;1.75;;
70780;SDS011;72716;48.814;2.126;2024-01-30T01:10:12;2.70;;;1.80;;
70780;SDS011;72716;48.814;2.126;2024-01-30T01:12:38;3.45;;;1.65;;
70780;SDS011;72716;48.814;2.126;2024-01-30T01:15:04;2.28;;;1.52;;
70780;SDS011;72716;48.814;2.126;2024-01-30T01:17:30;2.25;;;1.45;;
70780;SDS011;72716;48.814;2.126;2024-01-30T13:54:40;5.07;;;1.17;;
70780;SDS011;72716;48.814;2.126;2024-01-30T13:57:05;0.68;;;0.40;;
70780;SDS011;72716;48.814;2.126;2024-01-30T13:59:32;0.50;;;0.20;;
70780;SDS011;72716;48.814;2.126;2024-01-30T14:01:57;0.65;;;0.30;;
70780;SDS011;72716;48.814;2.126;2024-01-30T14:04:23;0.45;;;0.32;;
70780;SDS011;72716;48.814;2.126;2024-01-30T14:06:48;0.60;;;0.40;;
70780;SDS011;72716;48.814;2.126;2024-01-30T14:09:14;0.55;;;0.35;;
70780;SDS011;72716;48.814;2.126;2024-01-30T14:11:40;1.20;;;0.43;;
70780;SDS011;72716;48.814;2.126;2024-01-30T14:14:06;0.90;;;0.30;;
70780;SDS011;72716;48.814;2.126;2024-01-30T14:16:32;0.57;;;0.32;;
70780;SDS011;72716;48.814;2.126;2024-01-30T14:18:57;0.35;;;0.20;;
70780;SDS011;72716;48.814;2.126;2024-01-30T14:21:22;1.15;;;0.20;;
70780;SDS011;72716;48.814;2.126;2024-01-30T14:23:49;2.92;;;0.35;;
70780;SDS011;72716;48.814;2.126;2024-01-30T14:26:14;0.20;;;0.17;;
70780;SDS011;72716;48.814;2.126;2024-01-30T14:28:39;0.10;;;0.10;;
70780;SDS011;72716;48.814;2.126;2024-01-30T14:31:05;0.20;;;0.17;;
70780;SDS011;72716;48.814;2.126;2024-01-30T14:33:30;0.50;;;0.35;;
70780;SDS011;72716;48.814;2.126;2024-01-30T14:35:56;1.25;;;0.20;;
70780;SDS011;72716;48.814;2.126;2024-01-30T14:38:21;0.90;;;0.20;;
70780;SDS011;72716;48.814;2.126;2024-01-30T14:40:46;0.20;;;0.10;;
70780;SDS011;72716;48.814;2.126;2024-01-30T14:43:12;0.70;;;0.13;;
70780;SDS011;72716;48.814;2.126;2024-01-30T14:45:39;0.28;;;0.05;;
70780;SDS011;72716;48.814;2.126;2024-01-30T14:48:04;0.63;;;0.20;;
70780;SDS011;72716;48.814;2.126;2024-01-30T14:50:30;0.30;;;0.10;;
70780;SDS011;72716;48.814;2.126;2024-01-30T14:52:55;0.68;;;0.10;;
70780;SDS011;72716;48.814;2.126;2024-01-30T14:55:20;0.13;;;0.00;;
70780;SDS011;72716;48.814;2.126;2024-01-30T14:57:46;0.20;;;0.08;;
70780;SDS011;72716;48.814;2.126;2024-01-30T15:00:12;0.25;;;0.10;;
70780;SDS011;72716;48.814;2.126;2024-01-30T15:02:39;1.33;;;0.10;;
70780;SDS011;72716;48.814;2.126;2024-01-30T15:05:04;1.00;;;0.20;;
70780;SDS011;72716;48.814;2.126;2024-01-30T15:07:29;1.08;;;0.10;;
70780;SDS011;72716;48.814;2.126;2024-01-30T15:09:55;0.40;;;0.08;;
70780;SDS011;72716;48.814;2.126;2024-01-30T15:12:20;0.47;;;0.10;;
70780;SDS011;72716;48.814;2.126;2024-01-30T15:14:46;0.10;;;0.05;;
70780;SDS011;72716;48.814;2.126;2024-01-30T15:17:18;0.20;;;0.00;;
70780;SDS011;72716;48.814;2.126;2024-01-30T15:19:46;0.13;;;0.03;;
70780;SDS011;72716;48.814;2.126;2024-01-30T15:22:12;0.22;;;0.15;;
70780;SDS011;72716;48.814;2.126;2024-01-30T15:24:37;0.35;;;0.10;;
70780;SDS011;72716;48.814;2.126;2024-01-30T15:27:03;1.20;;;0.68;;
70780;SDS011;72716;48.814;2.126;2024-01-30T15:29:28;0.35;;;0.17;;
70780;SDS011;72716;48.814;2.126;2024-01-30T15:31:54;0.15;;;0.00;;
70780;SDS011;72716;48.814;2.126;2024-01-30T15:34:19;0.17;;;0.10;;
70780;SDS011;72716;48.814;2.126;2024-01-30T15:36:45;0.50;;;0.40;;
70780;SDS011;72716;48.814;2.126;2024-01-30T15:39:11;0.77;;;0.10;;
70780;SDS011;72716;48.814;2.126;2024-01-30T15:41:36;0.50;;;0.10;;
70780;SDS011;72716;48.814;2.126;2024-01-30T15:44:02;4.53;;;1.35;;
70780;SDS011;72716;48.814;2.126;2024-01-30T15:46:28;0.10;;;0.10;;
70780;SDS011;72716;48.814;2.126;2024-01-30T15:48:53;0.17;;;0.10;;
70780;SDS011;72716;48.814;2.126;2024-01-30T15:51:18;0.25;;;0.10;;
70780;SDS011;72716;48.814;2.126;2024-01-30T15:53:44;0.00;;;0.00;;
70780;SDS011;72716;48.814;2.126;2024-01-30T15:56:09;0.10;;;0.00;;
70780;SDS011;72716;48.814;2.126;2024-01-30T15:58:34;0.98;;;0.10;;
70780;SDS011;72716;48.814;2.126;2024-01-30T16:01:00;0.05;;;0.00;;
70780;SDS011;72716;48.814;2.126;2024-01-30T16:03:26;0.32;;;0.30;;
70780;SDS011;72716;48.814;2.126;2024-01-30T16:05:52;0.10;;;0.00;;
70780;SDS011;72716;48.814;2.126;2024-01-30T16:08:17;0.47;;;0.10;;
70780;SDS011;72716;48.814;2.126;2024-01-30T16:10:43;0.20;;;0.10;;
70780;SDS011;72716;48.814;2.126;2024-01-30T16:13:08;0.52;;;0.13;;
70780;SDS011;72716;48.814;2.126;2024-01-30T16:15:33;0.20;;;0.10;;
70780;SDS011;72716;48.814;2.126;2024-01-30T16:17:59;0.40;;;0.20;;
70780;SDS011;72716;48.814;2.126;2024-01-30T16:20:24;0.20;;;0.10;;
70780;SDS011;72716;48.814;2.126;2024-01-30T16:22:49;0.75;;;0.20;;
70780;SDS011;72716;48.814;2.126;2024-01-30T16:25:17;0.70;;;0.30;;
70780;SDS011;72716;48.814;2.126;2024-01-30T16:27:44;0.32;;;0.20;;
70780;SDS011;72716;48.814;2.126;2024-01-30T16:30:09;1.05;;;0.20;;
70780;SDS011;72716;48.814;2.126;2024-01-30T16:32:35;0.40;;;0.20;;
70780;SDS011;72716;48.814;2.126;2024-01-30T16:35:00;1.05;;;0.20;;
70780;SDS011;72716;48.814;2.126;2024-01-30T16:37:26;0.77;;;0.30;;
70780;SDS011;72716;48.814;2.126;2024-01-30T16:39:51;0.65;;;0.25;;
70780;SDS011;72716;48.814;2.126;2024-01-30T16:42:17;0.50;;;0.20;;
70780;SDS011;72716;48.814;2.126;2024-01-30T16:44:43;0.45;;;0.30;;
70780;SDS011;72716;48.814;2.126;2024-01-30T16:47:09;2.38;;;1.02;;
70780;SDS011;72716;48.814;2.126;2024-01-30T16:49:34;0.70;;;0.38;;
70780;SDS011;72716;48.814;2.126;2024-01-30T16:52:00;1.23;;;0.20;;
70780;SDS011;72716;48.814;2.126;2024-01-30T16:54:25;0.52;;;0.10;;
70780;SDS011;72716;48.814;2.126;2024-01-30T16:56:51;0.20;;;0.15;;
70780;SDS011;72716;48.814;2.126;2024-01-30T16:59:16;0.93;;;0.30;;
70780;SDS011;72716;48.814;2.126;2024-01-30T17:01:43;0.45;;;0.20;;
70780;SDS011;72716;48.814;2.126;2024-01-30T17:04:12;0.55;;;0.13;;
